Time;durP1;ratioP1;P1;durP2;ratioP2;P2;SDS_P1;SDS_P2;PMS_P1;PMS_P2;Temp;Humidity;BMP_temperature;BMP_pressure;BME280_temperature;BME280_humidity;BME280_pressure;Samples;Min_cycle;Max_cycle;Signal;HPM_P1;HPM_P2
2021/05/09 00:00:59;;;;;;;0.50;0.17;;;17.70;99.30;;;;;;5073567;28;20051;-80
2021/05/09 00:03:25;;;;;;;0.90;0.73;;;17.80;99.20;;;;;;5087427;28;20036;-79
2021/05/09 00:05:51;;;;;;;2.53;0.67;;;17.80;98.90;;;;;;5087555;28;20044;-79
2021/05/09 00:08:17;;;;;;;0.20;0.20;;;17.80;98.30;;;;;;5067094;28;20049;-79
2021/05/09 00:10:43;;;;;;;0.27;0.27;;;17.70;99.40;;;;;;5067485;28;20040;-79
2021/05/09 00:13:09;;;;;;;0.00;0.00;;;17.60;99.50;;;;;;5067933;28;20036;-79
2021/05/09 00:15:35;;;;;;;0.10;0.10;;;17.70;99.40;;;;;;5066885;28;20043;-79
2021/05/09 00:18:01;;;;;;;0.25;0.25;;;17.70;99.90;;;;;;5067179;28;20020;-79
2021/05/09 00:20:27;;;;;;;0.13;0.13;;;17.50;99.90;;;;;;5070402;28;20035;-79
2021/05/09 00:22:52;;;;;;;0.13;0.13;;;17.50;99.90;;;;;;5058413;28;20445;-79
2021/05/09 00:25:18;;;;;;;0.13;0.13;;;17.50;99.90;;;;;;5049828;28;20075;-79
2021/05/09 00:27:44;;;;;;;0.20;0.20;;;17.60;99.90;;;;;;5082209;28;20115;-79
2021/05/09 00:30:11;;;;;;;0.27;0.27;;;17.60;99.90;;;;;;5087297;28;20107;-79
2021/05/09 00:32:37;;;;;;;0.10;0.10;;;17.50;99.90;;;;;;5064456;28;20044;-79
2021/05/09 00:35:04;;;;;;;0.27;0.20;;;17.40;99.90;;;;;;5067613;28;20082;-79
2021/05/09 00:37:29;;;;;;;0.20;0.20;;;17.50;99.90;;;;;;5070894;28;20271;-79
2021/05/09 00:39:55;;;;;;;44.20;3.07;;;17.40;99.90;;;;;;5067661;28;20496;-80
2021/05/09 00:42:21;;;;;;;0.40;0.20;;;17.40;99.90;;;;;;5078493;28;20380;-80
2021/05/09 00:44:47;;;;;;;0.23;0.23;;;17.40;99.90;;;;;;5073688;28;20230;-80
2021/05/09 00:47:13;;;;;;;1.05;1.00;;;17.30;99.90;;;;;;5057241;28;20024;-80
2021/05/09 00:49:40;;;;;;;0.25;0.25;;;17.40;99.90;;;;;;5072047;28;20030;-79
2021/05/09 00:52:11;;;;;;;0.35;0.35;;;17.30;99.90;;;;;;5067335;28;20032;-80
2021/05/09 00:55:02;;;;;;;0.22;0.22;;;17.20;99.90;;;;;;5067044;28;20031;-80
2021/05/09 00:57:31;;;;;;;2.08;0.50;;;17.20;99.90;;;;;;5070469;28;20443;-80
2021/05/09 00:59:59;;;;;;;0.10;0.10;;;17.20;99.90;;;;;;5086978;28;20872;-79
2021/05/09 01:02:27;;;;;;;0.00;0.00;;;17.10;99.90;;;;;;5079516;28;20035;-79
2021/05/09 01:04:54;;;;;;;0.30;0.30;;;17.20;99.90;;;;;;5083425;28;20032;-79
2021/05/09 01:07:21;;;;;;;0.17;0.17;;;17.00;99.90;;;;;;5071242;28;20411;-80
2021/05/09 01:09:46;;;;;;;0.30;0.30;;;17.00;99.90;;;;;;5071327;28;20682;-79
2021/05/09 01:12:13;;;;;;;0.50;0.27;;;17.10;99.90;;;;;;5071142;28;20024;-80
2021/05/09 01:14:40;;;;;;;0.00;0.00;;;17.00;99.90;;;;;;5070370;28;20062;-80
2021/05/09 01:17:06;;;;;;;4.68;1.15;;;16.80;99.90;;;;;;5064113;28;20393;-79
2021/05/09 01:19:33;;;;;;;0.10;0.10;;;17.00;99.90;;;;;;5070116;28;20028;-80
2021/05/09 01:21:59;;;;;;;;;;;16.90;99.90;;;;;;5060391;28;20021;-79
2021/05/09 01:24:25;;;;;;;0.10;0.10;;;17.00;99.90;;;;;;5070502;28;19913;-79
2021/05/09 01:26:51;;;;;;;0.07;0.07;;;16.90;99.90;;;;;;5071196;28;20332;-79
2021/05/09 01:29:17;;;;;;;0.20;0.20;;;16.90;99.90;;;;;;5075672;28;20024;-79
2021/05/09 01:31:44;;;;;;;0.00;0.00;;;16.80;99.90;;;;;;5081352;28;20088;-79
2021/05/09 01:34:10;;;;;;;0.30;0.30;;;16.80;99.90;;;;;;5069990;28;20492;-79
2021/05/09 01:36:36;;;;;;;0.20;0.20;;;16.70;99.90;;;;;;5071026;28;20031;-80
2021/05/09 01:39:04;;;;;;;0.37;0.37;;;16.80;99.90;;;;;;5082921;28;20743;-79
2021/05/09 01:41:29;;;;;;;0.10;0.10;;;16.80;99.90;;;;;;5088904;28;20020;-80
2021/05/09 01:43:55;;;;;;;0.10;0.10;;;16.70;99.90;;;;;;5074638;28;20067;-80
2021/05/09 01:46:21;;;;;;;0.63;0.50;;;16.60;99.90;;;;;;5090536;28;20024;-79
2021/05/09 01:48:47;;;;;;;0.10;0.10;;;16.60;99.90;;;;;;5083448;28;20028;-80
2021/05/09 01:51:13;;;;;;;0.30;0.30;;;16.60;99.90;;;;;;5069789;28;20104;-79
2021/05/09 01:53:38;;;;;;;0.10;0.10;;;16.70;99.90;;;;;;5068043;28;20024;-79
2021/05/09 01:56:04;;;;;;;0.10;0.10;;;16.70;99.90;;;;;;5068652;28;20073;-79
2021/05/09 01:58:30;;;;;;;0.40;0.20;;;16.70;99.90;;;;;;5090042;28;20021;-79
2021/05/09 02:00:56;;;;;;;0.33;0.33;;;16.80;99.90;;;;;;5083688;28;20273;-80
2021/05/09 02:03:22;;;;;;;0.10;0.10;;;16.70;99.90;;;;;;5069434;28;20025;-80
2021/05/09 02:05:48;;;;;;;9.70;0.45;;;16.60;99.90;;;;;;5069750;28;20032;-80
2021/05/09 02:08:14;;;;;;;3.33;0.67;;;16.60;99.90;;;;;;5087246;28;20100;-80
2021/05/09 02:10:40;;;;;;;0.33;0.33;;;16.70;99.90;;;;;;5089839;28;20531;-79
2021/05/09 02:13:05;;;;;;;0.20;0.20;;;16.80;99.90;;;;;;5081958;28;20407;-79
2021/05/09 02:15:32;;;;;;;8.90;1.07;;;16.60;99.90;;;;;;5082133;28;20101;-79
2021/05/09 02:17:57;;;;;;;0.85;0.47;;;16.80;99.90;;;;;;5073120;28;20044;-80
2021/05/09 02:20:23;;;;;;;0.13;0.13;;;16.70;99.90;;;;;;5079168;28;20093;-80
2021/05/09 02:22:49;;;;;;;1.60;0.73;;;16.60;99.90;;;;;;5089023;28;20024;-80
2021/05/09 02:25:15;;;;;;;0.30;0.30;;;16.60;99.90;;;;;;5069436;28;20054;-79
2021/05/09 02:27:41;;;;;;;0.10;0.10;;;16.60;99.90;;;;;;5082112;28;20032;-79
2021/05/09 02:30:08;;;;;;;0.10;0.10;;;16.70;99.90;;;;;;5081374;28;20062;-79
2021/05/09 02:32:34;;;;;;;0.10;0.10;;;16.70;99.90;;;;;;5067260;28;20028;-79
2021/05/09 02:35:00;;;;;;;0.10;0.10;;;16.50;99.90;;;;;;5068316;28;20040;-79
2021/05/09 02:37:26;;;;;;;0.10;0.10;;;16.50;99.90;;;;;;5069552;28;20056;-79
2021/05/09 02:39:52;;;;;;;0.10;0.10;;;16.80;99.90;;;;;;5067798;28;20078;-79
2021/05/09 02:42:18;;;;;;;0.20;0.20;;;16.60;99.90;;;;;;5085264;28;20055;-80
2021/05/09 02:44:44;;;;;;;0.20;0.20;;;16.60;99.90;;;;;;5088936;28;20027;-80
2021/05/09 02:47:27;;;;;;;0.20;0.20;;;16.60;99.90;;;;;;5073600;28;20538;-79
2021/05/09 02:49:57;;;;;;;0.03;0.03;;;16.60;99.90;;;;;;5082279;28;20123;-80
2021/05/09 02:52:23;;;;;;;0.38;0.38;;;16.70;99.90;;;;;;5085499;28;20074;-79
2021/05/09 02:54:49;;;;;;;0.10;0.10;;;16.60;99.90;;;;;;5072203;28;20154;-80
2021/05/09 02:57:15;;;;;;;0.05;0.05;;;16.60;99.90;;;;;;5079442;28;20523;-80
2021/05/09 02:59:41;;;;;;;0.10;0.10;;;16.50;99.90;;;;;;5086373;28;20036;-80
2021/05/09 03:02:07;;;;;;;13.67;1.20;;;16.50;99.90;;;;;;5079040;28;20045;-79
2021/05/09 03:04:33;;;;;;;0.17;0.10;;;16.50;99.90;;;;;;5068301;28;20540;-79
2021/05/09 03:06:58;;;;;;;0.20;0.20;;;16.30;99.90;;;;;;5069371;28;20040;-80
2021/05/09 03:09:24;;;;;;;0.10;0.10;;;16.30;99.90;;;;;;5083147;28;20052;-80
2021/05/09 03:11:50;;;;;;;1.70;1.60;;;16.40;99.90;;;;;;5086461;28;20030;-79
2021/05/09 03:14:16;;;;;;;0.10;0.10;;;16.50;99.90;;;;;;5089050;28;20028;-80
2021/05/09 03:16:42;;;;;;;0.00;0.00;;;16.30;99.90;;;;;;5083269;28;20024;-79
2021/05/09 03:19:07;;;;;;;0.10;0.10;;;16.40;99.90;;;;;;5074251;28;20478;-80
2021/05/09 03:21:33;;;;;;;4.78;0.68;;;16.20;99.90;;;;;;5070134;28;20408;-79
2021/05/09 03:23:59;;;;;;;0.10;0.10;;;16.50;99.90;;;;;;5068124;28;20100;-79
2021/05/09 03:26:25;;;;;;;0.93;0.93;;;16.50;99.90;;;;;;5082245;28;20046;-79
2021/05/09 03:28:50;;;;;;;13.93;0.77;;;16.40;99.90;;;;;;5068514;28;20028;-79
2021/05/09 03:31:16;;;;;;;0.10;0.10;;;16.50;99.90;;;;;;5073047;28;20526;-79
2021/05/09 03:33:42;;;;;;;0.00;0.00;;;16.50;99.90;;;;;;5068058;28;20100;-80
2021/05/09 03:36:08;;;;;;;0.10;0.10;;;16.50;99.90;;;;;;5068563;28;20028;-81
2021/05/09 03:38:34;;;;;;;0.10;0.10;;;16.40;99.90;;;;;;5086836;28;20487;-80
2021/05/09 03:40:59;;;;;;;0.10;0.10;;;16.30;99.90;;;;;;5087070;28;20032;-80
2021/05/09 03:43:25;;;;;;;0.10;0.10;;;16.40;99.90;;;;;;5068196;28;20404;-80
2021/05/09 03:45:51;;;;;;;0.20;0.20;;;16.50;99.90;;;;;;5068274;28;20785;-80
2021/05/09 03:48:17;;;;;;;0.47;0.40;;;16.50;99.90;;;;;;5083349;28;20702;-80
2021/05/09 03:50:42;;;;;;;0.13;0.13;;;16.30;99.90;;;;;;5067914;28;20032;-80
2021/05/09 03:53:08;;;;;;;0.00;0.00;;;16.30;99.90;;;;;;5067967;28;20063;-80
2021/05/09 03:55:34;;;;;;;0.20;0.20;;;16.50;99.90;;;;;;5073369;28;20027;-80
2021/05/09 03:58:00;;;;;;;0.10;0.10;;;16.40;99.90;;;;;;5077966;28;20149;-81
2021/05/09 04:00:25;;;;;;;0.50;0.27;;;16.40;99.90;;;;;;5070260;28;20043;-80
2021/05/09 04:02:51;;;;;;;0.27;0.27;;;16.40;99.90;;;;;;5083388;28;20024;-79
2021/05/09 04:05:17;;;;;;;0.30;0.30;;;16.50;99.90;;;;;;5067472;28;20039;-79
2021/05/09 04:07:43;;;;;;;0.10;0.10;;;16.60;99.60;;;;;;5081197;28;20114;-79
2021/05/09 04:10:09;;;;;;;0.10;0.10;;;16.50;99.40;;;;;;5087135;28;20076;-79
2021/05/09 04:12:35;;;;;;;0.10;0.10;;;16.70;98.70;;;;;;5074393;28;20037;-79
2021/05/09 04:15:00;;;;;;;0.10;0.10;;;16.80;98.30;;;;;;5067106;28;20071;-79
2021/05/09 04:17:26;;;;;;;0.00;0.00;;;16.80;98.00;;;;;;5077126;28;20035;-80
2021/05/09 04:19:52;;;;;;;0.17;0.17;;;16.80;98.10;;;;;;5073782;28;20032;-81
2021/05/09 04:22:18;;;;;;;3.73;0.43;;;16.80;99.90;;;;;;5069152;28;20051;-80
2021/05/09 04:24:44;;;;;;;1.20;1.20;;;16.70;98.70;;;;;;5068781;28;20036;-80
2021/05/09 04:27:10;;;;;;;0.10;0.10;;;16.90;97.20;;;;;;5067625;28;20071;-79
2021/05/09 04:29:36;;;;;;;3.00;0.77;;;16.80;97.80;;;;;;5068257;28;20067;-80
2021/05/09 04:32:02;;;;;;;0.13;0.13;;;16.70;97.60;;;;;;5067465;28;20036;-80
2021/05/09 04:34:28;;;;;;;4.37;1.80;;;16.70;97.90;;;;;;5068758;28;20032;-79
2021/05/09 04:36:53;;;;;;;0.83;0.70;;;16.80;97.40;;;;;;5072863;28;20032;-80
2021/05/09 04:39:19;;;;;;;1.00;0.37;;;16.80;97.20;;;;;;5080930;28;20040;-79
2021/05/09 04:41:45;;;;;;;0.17;0.17;;;16.80;97.10;;;;;;5082358;28;20037;-79
2021/05/09 04:44:10;;;;;;;1.87;1.07;;;17.10;96.20;;;;;;5070337;28;20037;-80
2021/05/09 04:46:36;;;;;;;0.20;0.20;;;16.80;96.90;;;;;;5072131;28;20028;-80
2021/05/09 04:49:02;;;;;;;0.10;0.10;;;16.80;96.90;;;;;;5084532;28;20024;-80
2021/05/09 04:51:28;;;;;;;0.22;0.22;;;16.90;96.50;;;;;;5089321;28;20036;-80
2021/05/09 04:53:54;;;;;;;0.10;0.10;;;17.10;96.00;;;;;;5091624;28;20036;-80
2021/05/09 04:56:20;;;;;;;0.27;0.27;;;16.90;96.80;;;;;;5078618;28;20040;-80
2021/05/09 04:58:46;;;;;;;0.17;0.17;;;17.10;96.20;;;;;;5051192;28;20029;-80
2021/05/09 05:01:12;;;;;;;0.30;0.30;;;17.10;96.20;;;;;;5059536;28;20028;-80
2021/05/09 05:03:38;;;;;;;;;;;17.20;95.30;;;;;;5072461;28;20555;-79
2021/05/09 05:06:05;;;;;;;0.10;0.10;;;17.30;95.20;;;;;;5088165;28;19908;-79
2021/05/09 05:08:32;;;;;;;0.30;0.30;;;17.30;95.40;;;;;;5050337;28;20068;-79
2021/05/09 05:10:59;;;;;;;0.10;0.10;;;17.20;96.10;;;;;;5058779;28;20035;-80
2021/05/09 05:13:31;;;;;;;0.30;0.30;;;17.20;96.10;;;;;;5070926;28;20060;-79
2021/05/09 05:15:58;;;;;;;0.40;0.40;;;17.10;96.10;;;;;;5069841;28;20035;-79
2021/05/09 05:18:24;;;;;;;0.10;0.10;;;17.10;96.30;;;;;;5086301;28;20028;-79
2021/05/09 05:20:52;;;;;;;0.10;0.10;;;17.10;96.30;;;;;;5071473;28;20473;-79
2021/05/09 05:23:18;;;;;;;0.50;0.50;;;17.10;96.70;;;;;;5059729;28;20472;-79
2021/05/09 05:25:44;;;;;;;6.53;1.40;;;17.10;96.40;;;;;;5071475;28;20020;-80
2021/05/09 05:28:11;;;;;;;0.08;0.08;;;17.10;96.30;;;;;;5071220;28;20035;-80
2021/05/09 05:30:37;;;;;;;0.00;0.00;;;17.20;96.20;;;;;;5078371;28;20031;-80
2021/05/09 05:33:04;;;;;;;0.30;0.30;;;17.30;96.10;;;;;;5070675;28;20089;-80
2021/05/09 05:35:30;;;;;;;0.28;0.28;;;17.30;96.10;;;;;;5070617;28;20030;-80
2021/05/09 05:37:56;;;;;;;0.20;0.20;;;17.30;95.50;;;;;;5083895;28;20119;-80
2021/05/09 05:40:26;;;;;;;0.10;0.10;;;17.40;95.60;;;;;;5070501;28;20024;-79
2021/05/09 05:42:52;;;;;;;0.43;0.43;;;17.50;95.20;;;;;;5086258;28;20032;-79
2021/05/09 05:45:18;;;;;;;0.10;0.10;;;17.40;95.50;;;;;;5084211;28;20054;-79
2021/05/09 05:47:44;;;;;;;0.08;0.08;;;17.40;95.90;;;;;;5086193;28;20032;-80
2021/05/09 05:50:11;;;;;;;0.10;0.10;;;17.40;95.40;;;;;;5069312;28;20498;-80
2021/05/09 05:52:37;;;;;;;;;;;17.40;96.10;;;;;;5068571;28;20025;-79
2021/05/09 05:55:04;;;;;;;0.10;0.10;;;17.60;94.90;;;;;;5087707;28;19934;-80
2021/05/09 05:57:30;;;;;;;0.10;0.10;;;17.60;95.50;;;;;;5070621;28;20513;-80
2021/05/09 05:59:55;;;;;;;0.30;0.30;;;17.60;95.50;;;;;;5069307;28;20021;-80
2021/05/09 06:02:21;;;;;;;0.13;0.13;;;17.70;95.10;;;;;;5089442;28;20016;-80
2021/05/09 06:04:48;;;;;;;0.00;0.00;;;17.80;95.20;;;;;;5089659;28;20499;-79
2021/05/09 06:07:14;;;;;;;0.20;0.20;;;17.80;95.40;;;;;;5086170;28;20035;-79
2021/05/09 06:09:39;;;;;;;0.10;0.10;;;17.80;95.40;;;;;;5069233;28;20052;-80
2021/05/09 06:12:07;;;;;;;0.07;0.07;;;17.70;95.60;;;;;;5069762;28;20039;-79
2021/05/09 06:14:33;;;;;;;0.28;0.28;;;17.70;95.60;;;;;;5069257;28;20032;-79
2021/05/09 06:16:58;;;;;;;0.10;0.10;;;17.70;95.90;;;;;;5069185;28;20033;-79
2021/05/09 06:19:24;;;;;;;0.43;0.43;;;17.80;95.40;;;;;;5069432;28;20259;-79
2021/05/09 06:21:50;;;;;;;0.10;0.10;;;18.60;94.50;;;;;;5069177;28;20103;-79
2021/05/09 06:24:16;;;;;;;0.10;0.10;;;18.60;93.70;;;;;;5082521;28;20032;-79
2021/05/09 06:26:42;;;;;;;0.37;0.30;;;18.80;93.20;;;;;;5082980;28;20036;-79
2021/05/09 06:29:08;;;;;;;0.03;0.03;;;18.70;93.30;;;;;;5068443;28;20086;-79
2021/05/09 06:31:33;;;;;;;0.20;0.15;;;18.60;93.50;;;;;;5071734;28;20075;-79
2021/05/09 06:34:00;;;;;;;0.40;0.40;;;18.80;93.30;;;;;;5077612;28;20601;-79
2021/05/09 06:36:26;;;;;;;0.10;0.10;;;18.60;93.40;;;;;;5074448;28;20021;-80
2021/05/09 06:38:52;;;;;;;0.93;0.65;;;18.90;93.60;;;;;;5078543;28;20027;-80
2021/05/09 06:41:19;;;;;;;0.00;0.00;;;18.70;92.80;;;;;;5083655;28;20482;-80
2021/05/09 06:43:45;;;;;;;0.10;0.10;;;18.70;93.50;;;;;;5069420;28;20654;-80
2021/05/09 06:46:11;;;;;;;0.10;0.00;;;19.30;92.70;;;;;;5069486;28;20032;-81
2021/05/09 06:48:37;;;;;;;0.30;0.10;;;19.80;91.40;;;;;;5079849;28;20480;-80
2021/05/09 06:51:03;;;;;;;0.23;0.23;;;20.00;92.00;;;;;;5086775;28;20266;-80
2021/05/09 06:53:29;;;;;;;0.45;0.35;;;20.90;90.00;;;;;;5078966;28;20075;-80
2021/05/09 06:55:58;;;;;;;0.25;0.10;;;20.60;90.20;;;;;;5069568;28;20068;-80
2021/05/09 06:58:24;;;;;;;0.63;0.63;;;20.40;89.60;;;;;;5058965;28;20079;-80
2021/05/09 07:00:51;;;;;;;0.32;0.32;;;20.20;90.10;;;;;;5075040;28;20051;-80
2021/05/09 07:03:19;;;;;;;0.98;0.70;;;20.10;90.30;;;;;;5081943;28;20033;-80
2021/05/09 07:05:46;;;;;;;0.00;0.00;;;20.30;89.60;;;;;;5068598;28;20515;-80
2021/05/09 07:08:21;;;;;;;0.35;0.35;;;20.10;89.90;;;;;;5065698;28;20563;-80
2021/05/09 07:10:49;;;;;;;0.40;0.40;;;20.60;95.40;;;;;;5057359;28;20051;-80
2021/05/09 07:13:17;;;;;;;0.15;0.15;;;20.40;88.50;;;;;;5086782;28;20039;-80
2021/05/09 07:15:45;;;;;;;0.00;0.00;;;21.20;88.30;;;;;;5074087;28;20086;-80
2021/05/09 07:18:22;;;;;;;0.00;0.00;;;20.70;88.30;;;;;;5066793;28;20104;-81
2021/05/09 07:20:56;;;;;;;0.00;0.00;;;20.80;86.90;;;;;;5072737;28;20042;-80
2021/05/09 07:23:23;;;;;;;1.30;1.02;;;21.00;86.20;;;;;;5077457;28;20036;-80
2021/05/09 07:25:50;;;;;;;0.38;0.38;;;20.80;87.40;;;;;;5067014;28;20029;-80
2021/05/09 07:28:20;;;;;;;0.00;0.00;;;20.50;87.60;;;;;;5072700;28;20028;-80
2021/05/09 07:30:49;;;;;;;0.10;0.10;;;20.60;88.30;;;;;;5075099;28;20480;-80
2021/05/09 07:33:25;;;;;;;0.05;0.05;;;21.00;87.40;;;;;;5078638;28;20068;-80
2021/05/09 07:35:51;;;;;;;0.10;0.10;;;21.60;83.80;;;;;;5074431;28;20130;-80
2021/05/09 07:38:17;;;;;;;0.80;0.60;;;21.10;84.50;;;;;;5075090;28;20116;-80
2021/05/09 07:40:44;;;;;;;0.00;0.00;;;21.00;85.80;;;;;;5077219;28;20028;-81
2021/05/09 07:43:11;;;;;;;0.22;0.22;;;20.50;86.20;;;;;;5066570;28;20029;-80
2021/05/09 07:45:37;;;;;;;0.00;0.00;;;20.80;85.80;;;;;;5066581;28;20028;-81
2021/05/09 07:48:03;;;;;;;0.60;0.60;;;21.00;85.20;;;;;;5070485;28;20092;-81
2021/05/09 07:50:31;;;;;;;0.10;0.10;;;21.40;83.70;;;;;;5064904;28;20084;-81
2021/05/09 07:53:06;;;;;;;0.10;0.10;;;21.40;83.50;;;;;;5066226;28;20119;-81
2021/05/09 07:55:35;;;;;;;1.08;0.40;;;21.30;83.90;;;;;;5073537;28;20077;-81
2021/05/09 07:58:13;;;;;;;1.02;0.20;;;21.50;82.50;;;;;;5085399;28;20111;-80
2021/05/09 08:00:39;;;;;;;0.00;0.00;;;22.00;81.80;;;;;;5073828;28;20077;-81
2021/05/09 08:03:08;;;;;;;0.20;0.20;;;21.30;82.30;;;;;;5051243;28;20032;-81
2021/05/09 08:05:35;;;;;;;0.70;0.57;;;21.50;82.00;;;;;;5060578;28;20037;-82
2021/05/09 08:08:01;;;;;;;;;;;21.70;79.90;;;;;;5059007;28;20090;-83
2021/05/09 08:10:31;;;;;;;1.75;0.63;;;21.70;81.70;;;;;;5054908;28;19916;-82
2021/05/09 08:12:57;;;;;;;0.40;0.15;;;21.40;81.20;;;;;;5057398;28;20052;-81
2021/05/09 08:15:23;;;;;;;0.00;0.00;;;21.40;80.60;;;;;;5059887;28;20067;-81
2021/05/09 08:17:50;;;;;;;0.05;0.05;;;22.10;91.70;;;;;;5066404;28;20083;-81
2021/05/09 08:20:16;;;;;;;;;;;21.60;81.20;;;;;;5077248;28;20043;-81
2021/05/09 08:22:43;;;;;;;0.40;0.38;;;21.80;81.90;;;;;;5073131;28;20371;-83
2021/05/09 08:25:09;;;;;;;0.00;0.00;;;22.60;78.70;;;;;;5077175;28;20043;-82
2021/05/09 08:27:34;;;;;;;0.00;0.00;;;21.70;78.70;;;;;;5074142;28;20086;-81
2021/05/09 08:30:04;;;;;;;0.10;0.10;;;22.40;78.90;;;;;;5059024;28;20497;-80
2021/05/09 08:32:31;;;;;;;0.25;0.15;;;22.10;77.70;;;;;;5047391;28;20541;-80
2021/05/09 08:34:58;;;;;;;0.32;0.28;;;21.70;80.10;;;;;;5060462;28;20123;-80
2021/05/09 08:37:25;;;;;;;0.00;0.00;;;22.00;78.40;;;;;;5055590;28;20562;-80
2021/05/09 08:39:51;;;;;;;0.03;0.03;;;21.90;79.30;;;;;;5053774;28;20885;-81
2021/05/09 08:42:18;;;;;;;0.00;0.00;;;22.10;78.00;;;;;;5059018;28;20621;-80
2021/05/09 08:44:48;;;;;;;0.00;0.00;;;22.40;78.00;;;;;;5059690;28;20024;-81
2021/05/09 08:47:21;;;;;;;0.08;0.08;;;21.90;77.40;;;;;;5067995;28;20457;-80
2021/05/09 08:49:50;;;;;;;0.20;0.10;;;22.70;77.10;;;;;;5062028;28;20021;-80
2021/05/09 08:52:20;;;;;;;0.00;0.00;;;22.50;77.00;;;;;;5073482;28;20483;-80
2021/05/09 08:54:47;;;;;;;0.30;0.30;;;22.60;74.00;;;;;;5060609;28;20161;-81
2021/05/09 08:57:14;;;;;;;0.00;0.00;;;22.00;75.80;;;;;;5071699;28;20111;-80
2021/05/09 08:59:40;;;;;;;0.00;0.00;;;22.40;76.30;;;;;;5072961;28;20029;-80
2021/05/09 09:02:06;;;;;;;0.20;0.20;;;22.70;75.60;;;;;;5071898;28;20032;-80
2021/05/09 09:04:51;;;;;;;4.83;0.37;;;23.00;75.50;;;;;;5059021;28;21166;-80
2021/05/09 09:07:17;;;;;;;0.05;0.05;;;23.20;70.80;;;;;;5054423;28;20346;-80
2021/05/09 09:09:45;;;;;;;0.00;0.00;;;23.60;72.10;;;;;;5070013;28;20124;-80
2021/05/09 09:12:13;;;;;;;0.00;0.00;;;22.40;73.10;;;;;;5065438;28;20404;-82
2021/05/09 09:14:55;;;;;;;0.00;0.00;;;22.80;72.00;;;;;;5079154;28;20036;-82
2021/05/09 09:17:23;;;;;;;0.45;0.45;;;23.50;70.30;;;;;;5064929;28;20027;-82
2021/05/09 09:20:13;;;;;;;0.00;0.00;;;21.80;75.20;;;;;;5073980;28;20578;-84
2021/05/09 09:23:05;;;;;;;0.10;0.10;;;21.90;75.20;;;;;;5062472;28;20385;-81
2021/05/09 09:25:33;;;;;;;0.13;0.00;;;22.30;73.60;;;;;;5065565;28;20077;-82
2021/05/09 09:28:01;;;;;;;0.47;0.47;;;22.20;74.80;;;;;;5066651;28;20024;-82
2021/05/09 09:30:29;;;;;;;0.00;0.00;;;22.60;72.30;;;;;;5068048;28;20524;-82
2021/05/09 09:33:15;;;;;;;7.05;1.73;;;22.20;72.20;;;;;;5066147;28;20496;-82
2021/05/09 09:35:44;;;;;;;0.00;0.00;;;21.90;75.20;;;;;;5057206;28;20053;-83
2021/05/09 09:38:31;;;;;;;0.10;0.10;;;22.20;73.70;;;;;;5062504;28;20573;-83
2021/05/09 09:41:10;;;;;;;3.10;0.50;;;22.10;74.20;;;;;;5080757;28;20024;-83
2021/05/09 09:43:36;;;;;;;0.05;0.05;;;22.40;72.90;;;;;;5083331;28;20028;-83
2021/05/09 09:46:03;;;;;;;0.30;0.30;;;23.10;71.20;;;;;;5078654;28;20126;-83
2021/05/09 09:48:41;;;;;;;0.08;0.03;;;22.80;71.70;;;;;;5070756;28;20309;-82
2021/05/09 09:51:08;;;;;;;0.00;0.00;;;22.40;71.10;;;;;;5065649;28;20028;-82
2021/05/09 09:53:44;;;;;;;0.10;0.10;;;22.10;72.00;;;;;;5057043;28;20445;-82
2021/05/09 09:56:20;;;;;;;0.13;0.13;;;21.90;71.60;;;;;;5072623;28;20025;-82
2021/05/09 09:58:57;;;;;;;0.55;0.50;;;21.80;73.50;;;;;;5074301;28;20024;-81
2021/05/09 10:01:29;;;;;;;0.20;0.20;;;21.70;73.30;;;;;;5063539;28;20066;-81
2021/05/09 10:03:59;;;;;;;0.00;0.00;;;22.70;72.70;;;;;;5071872;28;20063;-81
2021/05/09 10:06:27;;;;;;;0.30;0.30;;;22.90;71.40;;;;;;5075760;28;20516;-82
2021/05/09 10:08:53;;;;;;;0.10;0.10;;;22.50;70.80;;;;;;5077907;28;20131;-82
2021/05/09 10:11:20;;;;;;;0.00;0.00;;;23.80;69.20;;;;;;5080130;28;20033;-81
2021/05/09 10:13:47;;;;;;;0.20;0.20;;;23.00;67.00;;;;;;5076216;28;20734;-81
2021/05/09 10:16:14;;;;;;;1.05;0.68;;;21.80;70.40;;;;;;5072523;28;20099;-82
2021/05/09 10:18:45;;;;;;;0.88;0.35;;;23.00;69.00;;;;;;5080611;28;20024;-83
2021/05/09 10:21:12;;;;;;;0.00;0.00;;;23.60;66.70;;;;;;5078148;28;20016;-83
2021/05/09 10:23:56;;;;;;;;;;;23.80;67.60;;;;;;5081867;28;20034;-83
2021/05/09 10:26:31;;;;;;;2.60;0.77;;;23.70;78.00;;;;;;5070464;28;20345;-82
2021/05/09 10:28:57;;;;;;;0.00;0.00;;;24.30;65.40;;;;;;5084228;28;20111;-82
2021/05/09 10:31:28;;;;;;;0.00;0.00;;;25.10;76.30;;;;;;5075256;28;20103;-82
2021/05/09 10:33:54;;;;;;;0.00;0.00;;;25.50;59.90;;;;;;5072350;28;20028;-82
2021/05/09 10:36:20;;;;;;;0.22;0.22;;;23.90;61.60;;;;;;5061099;28;20035;-82
2021/05/09 10:39:09;;;;;;;5.63;1.75;;;24.80;59.80;;;;;;5063149;28;20032;-81
2021/05/09 10:41:57;;;;;;;0.15;0.15;;;24.30;60.50;;;;;;5070700;28;20067;-81
2021/05/09 10:44:41;;;;;;;0.00;0.00;;;23.70;62.90;;;;;;5065472;28;20584;-80
2021/05/09 10:47:33;;;;;;;0.00;0.00;;;24.60;60.30;;;;;;5068131;28;20035;-82
2021/05/09 10:50:30;;;;;;;0.17;0.17;;;23.80;61.20;;;;;;5065073;28;20556;-82
2021/05/09 10:52:56;;;;;;;0.00;0.00;;;24.60;61.30;;;;;;5068713;28;20035;-80
2021/05/09 10:55:43;;;;;;;0.60;0.60;;;24.70;59.00;;;;;;5073203;28;20029;-81
2021/05/09 10:58:17;;;;;;;0.50;0.50;;;23.70;62.00;;;;;;5076007;28;20646;-81
2021/05/09 11:00:55;;;;;;;0.00;0.00;;;24.80;58.70;;;;;;5076410;28;20020;-82
2021/05/09 11:03:36;;;;;;;0.57;0.50;;;24.60;60.00;;;;;;5078147;28;20028;-81
2021/05/09 11:06:04;;;;;;;0.30;0.30;;;24.00;59.30;;;;;;5083059;28;20025;-81
2021/05/09 11:08:48;;;;;;;0.13;0.13;;;22.60;62.60;;;;;;5078814;28;20802;-81
2021/05/09 11:11:23;;;;;;;0.38;0.38;;;23.20;61.00;;;;;;5068558;28;20028;-82
2021/05/09 11:13:58;;;;;;;0.00;0.00;;;22.70;64.00;;;;;;5069802;28;20032;-81
2021/05/09 11:16:32;;;;;;;0.00;0.00;;;22.80;62.70;;;;;;5073395;28;20020;-80
2021/05/09 11:19:05;;;;;;;0.10;0.10;;;23.00;63.30;;;;;;5074240;28;20055;-80
2021/05/09 11:21:34;;;;;;;0.85;0.65;;;22.80;63.20;;;;;;5074872;28;20028;-82
2021/05/09 11:24:03;;;;;;;0.30;0.30;;;22.90;62.80;;;;;;5077069;28;20515;-81
2021/05/09 11:26:32;;;;;;;0.10;0.10;;;22.60;63.30;;;;;;5067924;28;20059;-81
2021/05/09 11:29:14;;;;;;;0.15;0.05;;;22.60;63.20;;;;;;5072333;28;20757;-83
2021/05/09 11:31:53;;;;;;;0.00;0.00;;;22.80;61.60;;;;;;5069939;28;20100;-83
2021/05/09 11:34:20;;;;;;;0.55;0.47;;;22.30;64.50;;;;;;5069897;28;20117;-82
2021/05/09 11:36:49;;;;;;;0.00;0.00;;;22.40;63.60;;;;;;5073618;28;20042;-83
2021/05/09 11:39:17;;;;;;;0.32;0.32;;;22.70;62.50;;;;;;5064456;28;20150;-82
2021/05/09 11:41:50;;;;;;;0.45;0.45;;;22.70;62.60;;;;;;5068549;28;20020;-83
2021/05/09 11:44:23;;;;;;;1.92;0.95;;;22.80;61.00;;;;;;5067302;28;20028;-83
2021/05/09 11:46:53;;;;;;;0.13;0.13;;;22.70;60.50;;;;;;5043755;28;20043;-81
2021/05/09 11:49:24;;;;;;;;;;;23.10;60.40;;;;;;5060136;28;20020;-82
2021/05/09 11:51:59;;;;;;;0.30;0.30;;;23.00;62.20;;;;;;5068182;28;19912;-82
2021/05/09 11:54:27;;;;;;;0.00;0.00;;;22.90;61.00;;;;;;5062283;28;20103;-82
2021/05/09 11:57:03;;;;;;;0.00;0.00;;;23.00;60.40;;;;;;5068568;28;20035;-82
2021/05/09 11:59:41;;;;;;;0.00;0.00;;;23.40;59.00;;;;;;5054096;28;20028;-83
2021/05/09 12:02:20;;;;;;;0.40;0.38;;;23.10;59.70;;;;;;5058831;28;20057;-83
2021/05/09 12:04:57;;;;;;;0.00;0.00;;;22.90;59.40;;;;;;5059667;28;20680;-83
2021/05/09 12:07:54;;;;;;;0.17;0.17;;;23.40;58.40;;;;;;5060940;28;20024;-82
2021/05/09 12:10:31;;;;;;;0.93;0.85;;;23.00;58.50;;;;;;5062035;28;20044;-82
2021/05/09 12:13:04;;;;;;;0.03;0.03;;;22.90;57.80;;;;;;5063005;28;20032;-82
2021/05/09 12:15:35;;;;;;;0.15;0.15;;;23.10;58.10;;;;;;5066600;28;20028;-82
2021/05/09 12:18:04;;;;;;;0.03;0.03;;;22.30;60.80;;;;;;5068848;28;20515;-82
2021/05/09 12:20:40;;;;;;;0.20;0.20;;;22.50;59.60;;;;;;5054951;28;20036;-82
2021/05/09 12:23:08;;;;;;;0.00;0.00;;;22.00;60.40;;;;;;5058248;28;20033;-83
2021/05/09 12:25:42;;;;;;;0.28;0.28;;;22.00;61.00;;;;;;5057269;28;20036;-83
2021/05/09 12:28:20;;;;;;;0.00;0.00;;;22.50;60.00;;;;;;5065032;28;20495;-83
2021/05/09 12:30:50;;;;;;;0.00;0.00;;;22.00;62.20;;;;;;5076634;28;20060;-83
2021/05/09 12:33:32;;;;;;;0.15;0.15;;;22.10;60.40;;;;;;5053971;28;20036;-83
2021/05/09 12:36:00;;;;;;;0.20;0.20;;;22.10;59.90;;;;;;5051867;28;20786;-83
2021/05/09 12:38:29;;;;;;;0.00;0.00;;;22.00;60.60;;;;;;5048300;28;20021;-83
2021/05/09 12:41:07;;;;;;;0.30;0.30;;;22.10;60.00;;;;;;5059458;28;20036;-83
2021/05/09 12:43:59;;;;;;;0.10;0.10;;;22.30;59.70;;;;;;5072930;28;20237;-83
2021/05/09 12:46:45;;;;;;;0.10;0.03;;;22.20;72.70;;;;;;5058517;28;20033;-83
2021/05/09 12:49:18;;;;;;;0.00;0.00;;;22.20;60.00;;;;;;5059053;28;20020;-83
2021/05/09 12:51:56;;;;;;;3.20;1.35;;;22.20;60.00;;;;;;5061986;28;20034;-83
2021/05/09 12:54:45;;;;;;;0.10;0.10;;;22.20;60.10;;;;;;5072604;28;20435;-83
2021/05/09 12:57:30;;;;;;;0.00;0.00;;;22.30;59.00;;;;;;5057307;28;20091;-82